Latest Coastal Weather Observations for Eucla

IDS60701

Issued at 10:41 pm CST Tuesday 30 August 2016 (issued every 10 minutes, with the page automatically refreshed every 10 minutes)

About coastal observations | Map of coastal stations | Coastal observations for SA | Marine services | Other Formats
Station Details ID: 011003 Name: EUCLA Lat: -31.68 Lon: 128.90 Height: 93.1 m
Data from the previous 72 hours. | See also: Recent months at Eucla
Date/Time
CST
Temp
°C
Wind Pressure Rain since
9am
mm
Weather Cloud Vis
km
Sea
Height
m
Swell
Dir  Spd
kts
Gust
kts
hPa Trend Height
m
Period
s
Dir
30/10:30pm 8.5 WSW 5 5 1019.1 - 0.0 - - - - - - -
30/10:00pm 8.9 WSW 5 5 1019.1 - 0.0 - - - - - - -
30/09:30pm 9.1 WSW 4 5 1018.9 - 0.0 - - - - - - -
30/09:00pm 10.7 W 4 5 1018.7 - 0.0 - - - - - - -
30/08:30pm 11.5 WSW 4 5 1018.4 - 0.0 - - - - - - -
30/08:00pm 11.8 WSW 5 6 1018.0 - 0.0 - - - - - - -
30/07:30pm 11.9 WSW 4 6 1017.6 - 0.0 - - - - - - -
30/07:00pm 12.6 SW 6 8 1017.2 - 0.0 - - - - - - -
30/06:30pm 13.2 SW 7 10 1016.9 - 0.0 - - - - - - -
30/06:00pm 14.1 SW 9 17 1016.7 - 0.0 - - - - - - -
30/05:30pm 14.4 SW 9 16 1016.2 - 0.0 - - - - - - -
30/05:00pm 14.7 SW 11 16 1015.8 - 0.0 - - - - - - -
30/04:30pm 15.2 SSW 9 15 1015.4 - 0.0 Haze Mostly cloudy 25 - - - -
30/04:00pm 16.7 SW 8 14 1015.1 - 0.0 - - - - - - -
30/03:30pm 14.0 SW 13 22 1015.3 - 0.0 - - - - - - -
30/03:00pm 17.6 SW 10 17 1014.7 - 0.0 - - - - - - -
30/02:30pm 16.7 WSW 11 18 1014.8 - 0.0 - - - - - - -
30/02:00pm 15.1 SW 10 16 1014.8 - 0.0 - - - - - - -
30/01:30pm 15.3 SSW 11 21 1014.7 - 0.0 - - - - - - -
30/01:00pm 16.2 SW 10 17 1014.8 - 0.0 - - - - - - -
30/12:30pm 16.4 SW 11 19 1014.7 - 0.0 - - - - - - -
30/12:00pm 16.5 WSW 11 18 1014.8 - 0.0 - - - - - - -
30/11:30am 17.8 W 11 18 1014.9 - 0.0 - - - - - - -
30/11:00am 17.1 WSW 11 18 1014.8 - 0.0 - - - - - - -
30/10:30am 15.6 W 11 17 1014.7 - 0.0 Fine Partly cloudy 40 - - - -
30/10:00am 15.6 W 10 16 1014.4 - 0.0 - - - - - - -
30/09:30am 14.0 W 11 17 1014.2 - 0.0 - - - - - - -
30/09:00am 12.8 WNW 10 15 1013.9 - 0.0 - - - - - - -
30/08:30am 11.7 WNW 10 17 1013.7 - 0.0 - - - - - - -
30/08:00am 10.8 WNW 9 14 1013.3 - 0.0 - - - - - - -
30/07:30am 10.5 WNW 9 15 1013.0 - 0.0 - - - - - - -
30/07:00am 10.5 WNW 10 16 1012.2 - 0.0 - - - - - - -
30/06:30am 10.5 WNW 8 12 1011.6 - 0.0 - - - - - - -
30/06:00am 10.3 WNW 8 14 1011.0 - 0.0 - - - - - - -
30/05:30am 10.6 WNW 8 13 1010.5 - 0.0 - - - - - - -
30/05:00am 10.8 WNW 10 15 1010.2 - 0.0 - - - - - - -
30/04:30am 11.1 WNW 9 14 1009.8 - 0.0 - - - - - - -
30/04:00am 11.4 WNW 9 14 1009.7 - 0.0 - - - - - - -
30/03:30am 11.8 WNW 10 15 1009.7 - 0.0 - - - - - - -
30/03:00am 12.0 WNW 11 17 1009.6 - 0.0 - - - - - - -
30/02:30am 12.1 WNW 8 12 1009.7 - 0.0 - - - - - - -
30/02:00am 12.2 NW 8 15 1009.8 - 0.0 - - - - - - -
30/01:30am 12.6 WNW 8 13 1009.7 - 0.0 - - - - - - -
30/01:00am 13.4 WNW 11 17 1009.6 - 0.0 - - - - - - -
30/12:30am 13.9 WNW 10 15 1009.5 - 0.0 - - - - - - -
30/12:00am 14.4 WNW 10 15 1009.2 - 0.0 - - - - - - -
 
Date/Time
CST
Temp
°C
Wind Pressure Rain since
9am
mm
Weather Cloud Vis
km
Sea
Height
m
Swell
Dir  Spd
kts
Gust
kts
hPa Trend Height
m
Period
s
Dir
29/11:30pm 14.6 WNW 10 15 1009.0 - 0.0 - - - - - - -
29/11:00pm 15.3 WNW 9 15 1009.1 - 0.0 - - - - - - -
29/10:30pm 15.9 NW 8 11 1008.9 - 0.0 - - - - - - -
29/10:00pm 15.9 NNW 8 11 1008.7 - 0.0 - - - - - - -
29/09:30pm 15.9 NNW 8 10 1008.5 - 0.0 - - - - - - -
29/09:00pm 15.5 NNW 7 9 1008.5 - 0.0 - - - - - - -
29/08:30pm 15.6 NNW 7 9 1008.3 - 0.0 - - - - - - -
29/08:00pm 16.4 NW 6 9 1008.0 - 0.0 - - - - - - -
29/07:30pm 17.0 NW 8 11 1007.6 - 0.0 - - - - - - -
29/07:00pm 17.3 WNW 8 14 1007.2 - 0.0 - - - - - - -
29/06:30pm 17.8 W 11 16 1006.7 - 0.0 - - - - - - -
29/06:00pm 18.3 WNW 11 17 1006.2 - 0.0 - - - - - - -
29/05:30pm 19.0 W 11 20 1005.6 - 0.0 - - - - - - -
29/05:00pm 19.4 NW 12 21 1005.1 - 0.0 - - - - - - -
29/04:30pm 20.3 NW 13 27 1004.7 - 0.0 Fine Mostly cloudy 40 - - - -
29/04:00pm 21.3 NW 12 19 1004.6 - 0.0 - - - - - - -
29/03:30pm 19.8 NW 15 22 1004.7 - 0.0 - - - - - - -
29/03:00pm 20.6 NW 13 21 1004.8 - 0.0 - - - - - - -
29/02:30pm 20.3 NW 13 23 1004.9 - 0.0 - - - - - - -
29/02:00pm 20.7 NW 15 21 1005.2 - 0.0 - - - - - - -
29/01:30pm 19.2 NW 14 22 1005.4 - 0.0 - - - - - - -
29/01:00pm 19.2 NW 13 21 1005.8 - 0.0 - - - - - - -
29/12:30pm 19.1 NW 14 20 1006.0 - 0.0 - - - - - - -
29/12:00pm 18.0 NW 14 20 1006.4 - 0.0 - - - - - - -
29/11:30am 17.9 NW 13 18 1006.6 - 0.0 - - - - - - -
29/11:00am 17.5 NW 13 19 1006.6 - 0.0 - - - - - - -
29/10:30am 16.3 WNW 13 21 1006.7 - 0.0 Fine Mostly clear 40 - - - -
29/10:00am 15.4 NW 12 16 1006.6 - 0.0 - - - - - - -
29/09:30am 14.6 NW 12 18 1006.8 - 0.0 - - - - - - -
29/09:00am 13.2 NNW 11 17 1006.9 - 0.0 - - - - - - -
29/08:30am 11.6 NNW 11 17 1006.7 - 0.0 - - - - - - -
29/08:00am 10.2 NNW 9 12 1006.3 - 0.0 - - - - - - -
29/07:30am 9.2 NNW 8 12 1005.9 - 0.0 - - - - - - -
29/07:00am 9.1 NNW 8 11 1005.6 - 0.0 - - - - - - -
29/06:30am 9.4 NNW 9 13 1005.3 - 0.0 - - - - - - -
29/06:00am 9.7 NNW 9 11 1005.2 - 0.0 - - - - - - -
29/05:30am 9.9 N 9 14 1004.9 - 0.0 - - - - - - -
29/05:00am 9.9 N 9 12 1004.8 - 0.0 - - - - - - -
29/04:30am 9.6 NNW 8 10 1004.7 - 0.0 - - - - - - -
29/04:00am 9.8 NNW 8 10 1004.6 - 0.0 - - - - - - -
29/03:30am 9.8 N 7 9 1004.6 - 0.0 - - - - - - -
29/03:00am 11.1 NNW 9 13 1004.8 - 0.0 - - - - - - -
29/02:30am 10.9 NNW 8 11 1004.9 - 0.0 - - - - - - -
29/02:00am 11.1 NNW 8 10 1005.1 - 0.0 - - - - - - -
29/01:30am 11.5 NNW 8 10 1005.2 - 0.0 - - - - - - -
29/01:00am 11.1 NNW 7 9 1005.3 - 0.0 - - - - - - -
29/12:30am 10.8 N 7 8 1005.3 - 0.0 - - - - - - -
29/12:00am 11.4 N 6 7 1005.5 - 0.0 - - - - - - -
 
Date/Time
CST
Temp
°C
Wind Pressure Rain since
9am
mm
Weather Cloud Vis
km
Sea
Height
m
Swell
Dir  Spd
kts
Gust
kts
hPa Trend Height
m
Period
s
Dir
28/11:30pm 13.1 NW 6 7 1005.5 - 0.0 - - - - - - -
28/11:00pm 14.8 NW 5 7 1005.9 - 0.0 - - - - - - -
28/10:30pm 16.0 WNW 6 8 1005.9 - 0.0 - - - - - - -
28/10:00pm 15.3 NNW 5 5 1005.9 - 0.0 - - - - - - -
28/09:30pm 15.9 NW 4 5 1005.8 - 0.0 - - - - - - -
28/09:00pm 17.0 WNW 6 8 1005.7 - 0.0 - - - - - - -
28/08:30pm 17.6 W 8 14 1005.4 - 0.0 - - - - - - -
28/08:00pm 17.9 W 8 13 1004.9 - 0.0 - - - - - - -
28/07:30pm 17.8 WNW 7 11 1004.3 - 0.0 - - - - - - -
28/07:00pm 18.6 W 8 14 1003.8 - 0.0 - - - - - - -
28/06:30pm 20.0 WNW 11 19 1003.1 - 0.0 - - - - - - -
28/06:00pm 21.4 NW 15 27 1002.6 - 0.0 - - - - - - -
28/05:38pm 22.2 NW 15 27 1002.2 - 0.0 - - - - - - -
28/05:30pm 22.2 NW 14 20 1002.0 - 0.0 - - - - - - -
28/05:07pm 22.9 NW 16 26 1001.7 - 0.0 - - - - - - -
28/05:00pm 22.6 NW 17 23 1001.6 - 0.0 - - - - - - -
28/04:39pm 22.3 NW 16 26 1001.5 - 0.0 - - - - - - -
28/04:30pm 22.1 NW 17 24 1001.5 - 0.0 Fine Mostly cloudy 40 - - - -
28/04:00pm 22.3 NW 17 27 1001.3 - 0.0 - - - - - - -
28/03:31pm 22.6 NNW 18 28 1001.3 - 0.0 - - - - - - -
28/03:30pm 23.1 NNW 19 28 1001.2 - 0.0 - - - - - - -
28/03:00pm 23.6 NW 18 30 1001.5 - 0.0 - - - - - - -
28/02:30pm 23.0 NW 16 27 1001.7 - 0.0 - - - - - - -
28/02:05pm 22.3 NW 16 26 1001.9 - 0.0 - - - - - - -
28/02:00pm 22.2 NW 17 25 1001.9 - 0.0 - - - - - - -
28/01:31pm 23.1 NW 17 27 1001.9 - 0.0 - - - - - - -
28/01:30pm 23.3 NW 16 22 1001.9 - 0.0 - - - - - - -
28/01:06pm 23.0 NW 17 27 1002.3 - 0.0 - - - - - - -
28/01:00pm 22.9 NW 17 24 1002.3 - 0.0 - - - - - - -
28/12:32pm 22.6 NW 15 25 1002.6 - 0.0 - - - - - - -
28/12:30pm 22.9 NW 16 25 1002.5 - 0.0 - - - - - - -
28/12:01pm 21.8 NW 17 26 1003.1 - 0.0 - - - - - - -
28/12:00pm 21.5 NW 17 26 1003.1 - 0.0 - - - - - - -
28/11:38am 21.6 NW 15 26 1003.6 - 0.0 - - - - - - -
28/11:30am 21.1 NW 16 24 1003.7 - 0.0 - - - - - - -
28/11:01am 19.8 NW 16 26 1003.9 - 0.0 - - - - - - -
28/11:00am 19.3 NW 16 25 1003.9 - 0.0 - - - - - - -
28/10:33am 19.2 NW 17 27 1003.8 - 0.0 - - - - - - -
28/10:30am 19.3 NW 18 27 1003.9 - 0.0 Fine Partly cloudy 40 - - - -
28/10:10am 18.8 NW 15 26 1003.8 - 0.0 - - - - - - -
28/10:00am 17.8 NW 13 23 1003.8 - 0.0 - - - - - - -
28/09:30am 18.2 NW 14 19 1003.8 - 0.0 - - - - - - -
28/09:00am 17.6 NNW 9 13 1003.9 - 0.0 - - - - - - -
28/08:30am 16.7 NNW 6 10 1003.9 - 0.0 - - - - - - -
28/08:00am 17.0 WNW 7 12 1004.6 - 0.0 - - - - - - -
28/07:30am 15.9 WNW 6 8 1004.6 - 0.0 - - - - - - -
28/07:00am 15.7 W 7 11 1003.8 - 0.0 - - - - - - -
28/06:30am 16.0 W 8 12 1003.6 - 0.0 - - - - - - -
28/06:00am 15.3 WSW 9 12 1002.9 - 0.0 - - - - - - -
28/05:30am 15.8 WSW 7 10 1002.5 - 0.0 - - - - - - -
28/05:00am 16.0 W 5 6 1002.2 - 0.0 - - - - - - -
28/04:30am 16.1 W 4 5 1002.4 - 0.0 - - - - - - -
28/04:00am 17.3 WSW 5 7 1002.6 - 0.0 - - - - - - -
28/03:30am 19.1 NW 5 8 1002.6 - 0.0 - - - - - - -
28/03:00am 21.0 WNW 9 16 1003.6 - 0.0 - - - - - - -
28/02:30am 18.4 NNE 10 15 1002.4 - 0.0 - - - - - - -
28/02:00am 18.1 NNE 9 16 1003.1 - 0.0 - - - - - - -
28/01:30am 18.6 NNE 9 15 1003.9 - 0.0 - - - - - - -
28/01:00am 19.3 NNE 13 21 1004.0 - 0.0 - - - - - - -
28/12:30am 18.6 NNE 12 17 1004.6 - 0.0 - - - - - - -

Other Formats:

Comma delimited format used in spreadsheet applications
http://www.bom.gov.au/fwo/IDS60701/IDS60701.94647.axf

JavaScript Object Notation format (JSON) in row-major order
http://www.bom.gov.au/fwo/IDS60701/IDS60701.94647.json